createdAt,value
2018-10-09T00:02:07.767Z,6.90
2018-10-09T00:04:36.161Z,6.60
2018-10-09T00:07:04.462Z,6.60
2018-10-09T00:09:32.754Z,7.10
2018-10-09T00:12:00.991Z,7.10
2018-10-09T00:14:29.265Z,7.27
2018-10-09T00:16:57.530Z,7.40
2018-10-09T00:19:25.863Z,7.45
2018-10-09T00:21:54.142Z,7.50
2018-10-09T00:24:22.445Z,7.40
2018-10-09T00:26:50.661Z,7.75
2018-10-09T00:29:18.911Z,7.20
2018-10-09T00:31:47.207Z,7.40
2018-10-09T00:34:15.474Z,6.95
2018-10-09T00:36:43.711Z,7.62
2018-10-09T00:39:12.116Z,7.25
2018-10-09T00:41:40.490Z,7.20
2018-10-09T00:44:08.966Z,6.80
2018-10-09T00:46:37.206Z,7.15
2018-10-09T00:49:05.688Z,7.08
2018-10-09T00:51:33.957Z,7.22
2018-10-09T00:54:02.231Z,6.70
2018-10-09T00:56:30.470Z,7.00
2018-10-09T00:58:58.919Z,6.75
2018-10-09T01:01:27.307Z,6.50
2018-10-09T01:03:55.586Z,6.87
2018-10-09T01:06:23.851Z,7.35
2018-10-09T01:08:52.157Z,6.75
2018-10-09T01:11:20.487Z,6.92
2018-10-09T01:13:48.767Z,6.95
2018-10-09T01:16:17.023Z,7.40
2018-10-09T01:18:45.254Z,6.80
2018-10-09T01:21:13.571Z,6.83
2018-10-09T01:23:41.825Z,7.65
2018-10-09T01:26:10.140Z,7.25
2018-10-09T01:28:38.601Z,7.45
2018-10-09T01:31:07.030Z,6.70
2018-10-09T01:33:35.243Z,7.40
2018-10-09T01:36:03.556Z,7.15
2018-10-09T01:38:31.825Z,7.35
2018-10-09T01:41:00.103Z,6.95
2018-10-09T01:43:28.318Z,7.12
2018-10-09T01:45:56.589Z,7.17
2018-10-09T01:48:24.841Z,7.28
2018-10-09T01:50:53.103Z,7.25
2018-10-09T01:53:21.336Z,7.50
2018-10-09T01:55:49.599Z,7.72
2018-10-09T01:58:17.861Z,7.08
2018-10-09T02:00:46.153Z,7.67
2018-10-09T02:03:14.408Z,7.60
2018-10-09T02:05:42.651Z,7.25
2018-10-09T02:08:10.899Z,7.60
2018-10-09T02:10:39.176Z,7.10
2018-10-09T02:13:07.506Z,8.08
2018-10-09T02:15:35.747Z,7.95
2018-10-09T02:18:03.990Z,7.60
2018-10-09T02:20:32.259Z,8.15
2018-10-09T02:23:00.501Z,8.05
2018-10-09T02:25:28.833Z,7.70
2018-10-09T02:27:57.092Z,7.90
2018-10-09T02:30:25.352Z,7.78
2018-10-09T02:32:53.623Z,7.87
2018-10-09T02:35:21.974Z,8.20
2018-10-09T02:37:50.224Z,7.53
2018-10-09T02:40:18.443Z,7.75
2018-10-09T02:42:46.754Z,7.83
2018-10-09T02:45:15.011Z,7.60
2018-10-09T02:47:43.357Z,7.42
2018-10-09T02:50:11.599Z,7.50
2018-10-09T02:52:39.820Z,7.37
2018-10-09T02:55:08.155Z,7.40
2018-10-09T02:57:36.422Z,7.45
2018-10-09T03:00:04.763Z,7.50
2018-10-09T03:02:33.003Z,6.85
2018-10-09T03:05:01.271Z,7.78
2018-10-09T03:07:29.561Z,7.70
2018-10-09T03:09:57.807Z,7.50
2018-10-09T03:12:26.027Z,7.40
2018-10-09T03:14:54.309Z,7.15
2018-10-09T03:17:22.571Z,7.40
2018-10-09T03:19:50.847Z,7.55
2018-10-09T03:22:19.099Z,7.15
2018-10-09T03:24:47.360Z,7.80
2018-10-09T03:27:15.621Z,7.72
2018-10-09T03:29:43.849Z,7.47
2018-10-09T03:32:12.093Z,7.78
2018-10-09T03:34:40.353Z,7.80
2018-10-09T03:37:08.612Z,8.10
2018-10-09T03:39:36.929Z,7.72
2018-10-09T03:42:05.196Z,8.78
2018-10-09T03:44:33.645Z,7.92
2018-10-09T03:47:01.929Z,7.80
2018-10-09T03:49:30.201Z,7.80
2018-10-09T03:51:58.471Z,7.80
2018-10-09T03:54:26.823Z,7.50
2018-10-09T03:56:55.065Z,7.70
2018-10-09T03:59:23.456Z,7.17
2018-10-09T04:01:51.742Z,8.13
2018-10-09T04:04:19.999Z,7.43
2018-10-09T04:06:48.233Z,8.35
2018-10-09T04:09:16.530Z,7.65
2018-10-09T04:11:44.765Z,8.00
2018-10-09T04:14:13.093Z,7.80
2018-10-09T04:16:41.385Z,8.43
2018-10-09T04:19:09.848Z,7.80
2018-10-09T04:21:38.110Z,8.05
2018-10-09T04:24:06.377Z,8.40
2018-10-09T04:26:34.861Z,7.65
2018-10-09T04:29:03.111Z,8.17
2018-10-09T04:31:31.369Z,7.60
2018-10-09T04:33:59.593Z,6.95
2018-10-09T04:36:27.887Z,7.80
2018-10-09T04:38:56.153Z,7.55
2018-10-09T04:41:24.369Z,7.50
2018-10-09T04:43:52.662Z,8.20
2018-10-09T04:46:20.870Z,7.87
2018-10-09T04:48:49.141Z,8.75
2018-10-09T04:51:17.952Z,8.60
2018-10-09T04:53:46.213Z,8.78
2018-10-09T04:56:14.490Z,9.08
2018-10-09T04:58:42.755Z,9.60
2018-10-09T05:01:10.999Z,9.48
2018-10-09T05:03:39.298Z,12.73
2018-10-09T05:06:07.789Z,14.60
2018-10-09T05:08:36.040Z,14.55
2018-10-09T05:11:04.397Z,14.63
2018-10-09T05:13:32.674Z,13.00
2018-10-09T05:16:00.966Z,12.90
2018-10-09T05:18:29.226Z,11.48
2018-10-09T05:20:57.530Z,11.10
2018-10-09T05:23:25.804Z,11.38
2018-10-09T05:25:54.106Z,12.25
2018-10-09T05:28:22.447Z,12.70
2018-10-09T05:30:50.663Z,12.15
2018-10-09T05:33:19.169Z,11.43
2018-10-09T05:35:47.426Z,10.50
2018-10-09T05:38:15.693Z,9.80
2018-10-09T05:40:43.975Z,9.80
2018-10-09T05:43:12.251Z,10.88
2018-10-09T05:45:41.195Z,10.10
2018-10-09T05:48:10.543Z,10.00
2018-10-09T05:50:38.868Z,9.90
2018-10-09T05:53:07.243Z,10.80
2018-10-09T05:55:36.284Z,9.83
2018-10-09T05:58:04.587Z,9.80
2018-10-09T06:00:32.830Z,9.33
2018-10-09T06:03:01.347Z,10.05
2018-10-09T06:05:30.147Z,9.15
2018-10-09T06:07:58.421Z,9.15
2018-10-09T06:10:26.665Z,9.73
2018-10-09T06:12:54.937Z,8.90
2018-10-09T06:15:23.215Z,9.05
2018-10-09T06:17:51.474Z,9.23
2018-10-09T06:20:19.778Z,9.63
2018-10-09T06:22:48.038Z,9.53
2018-10-09T06:25:16.465Z,9.20
2018-10-09T06:27:44.737Z,8.97
2018-10-09T06:30:13.009Z,8.93
2018-10-09T06:32:41.362Z,9.03
2018-10-09T06:35:09.625Z,9.03
2018-10-09T06:37:37.879Z,8.88
2018-10-09T06:40:06.461Z,8.58
2018-10-09T06:42:34.814Z,8.73
2018-10-09T06:45:03.050Z,9.48
2018-10-09T06:47:31.340Z,10.30
2018-10-09T06:49:59.583Z,10.10
2018-10-09T06:52:27.868Z,15.72
2018-10-09T06:54:56.168Z,15.88
2018-10-09T06:57:24.508Z,11.63
2018-10-09T06:59:52.836Z,12.07
2018-10-09T07:02:21.270Z,11.60
2018-10-09T07:04:49.548Z,11.10
2018-10-09T07:07:17.808Z,11.03
2018-10-09T07:09:46.103Z,10.80
2018-10-09T07:12:14.402Z,10.32
2018-10-09T07:14:42.766Z,9.93
2018-10-09T07:17:11.171Z,9.93
2018-10-09T07:19:39.375Z,10.40
2018-10-09T07:22:07.675Z,10.28
2018-10-09T07:24:36.184Z,10.15
2018-10-09T07:27:04.656Z,10.23
2018-10-09T07:29:32.972Z,11.55
2018-10-09T07:32:01.276Z,11.50
2018-10-09T07:34:29.607Z,10.68
2018-10-09T07:36:57.902Z,12.33
2018-10-09T07:39:26.207Z,11.50
2018-10-09T07:41:54.470Z,11.80
2018-10-09T07:44:22.772Z,12.63
2018-10-09T07:46:51.048Z,12.78
2018-10-09T07:49:19.309Z,16.17
2018-10-09T07:51:47.562Z,12.78
2018-10-09T07:54:15.835Z,11.70
2018-10-09T07:56:44.099Z,11.10
2018-10-09T07:59:12.352Z,11.73
2018-10-09T08:01:40.616Z,11.95
2018-10-09T08:04:08.886Z,12.60
2018-10-09T08:06:37.286Z,11.48
2018-10-09T08:09:08.496Z,11.50
2018-10-09T08:11:36.766Z,12.30
2018-10-09T08:14:05.031Z,12.85
2018-10-09T08:16:33.288Z,12.70
2018-10-09T08:19:01.724Z,12.95
2018-10-09T08:21:30.017Z,12.80
2018-10-09T08:23:58.291Z,13.10
2018-10-09T08:26:26.613Z,13.85
2018-10-09T08:28:54.917Z,14.30
2018-10-09T08:31:23.238Z,13.98
2018-10-09T08:33:51.506Z,14.85
2018-10-09T08:36:19.752Z,15.10
2018-10-09T08:38:48.278Z,15.33
2018-10-09T08:41:16.552Z,15.05
2018-10-09T08:43:44.873Z,15.32
2018-10-09T08:46:13.259Z,14.78
2018-10-09T08:48:42.072Z,15.08
2018-10-09T08:51:10.367Z,15.32
2018-10-09T08:53:38.631Z,14.60
2018-10-09T08:56:07.280Z,14.15
2018-10-09T08:58:35.585Z,14.50
2018-10-09T09:01:03.867Z,15.70
2018-10-09T09:03:32.235Z,16.00
2018-10-09T09:06:00.432Z,16.07
2018-10-09T09:08:28.914Z,14.90
2018-10-09T09:10:57.183Z,14.98
2018-10-09T09:13:25.451Z,15.20
2018-10-09T09:15:53.784Z,16.23
2018-10-09T09:18:22.016Z,16.70
2018-10-09T09:20:50.301Z,15.40
2018-10-09T09:23:18.585Z,15.90
2018-10-09T09:25:46.833Z,16.02
2018-10-09T09:28:15.179Z,15.45
2018-10-09T09:30:43.440Z,15.90
2018-10-09T09:33:11.794Z,15.90
2018-10-09T09:35:40.081Z,17.00
2018-10-09T09:38:08.377Z,16.23
2018-10-09T09:40:36.794Z,16.70
2018-10-09T09:43:05.050Z,17.10
2018-10-09T09:45:33.321Z,16.07
2018-10-09T09:48:01.663Z,17.00
2018-10-09T09:50:29.966Z,17.55
2018-10-09T09:52:58.273Z,16.80
2018-10-09T09:55:26.620Z,17.62
2018-10-09T09:57:54.993Z,18.10
2018-10-09T10:00:28.505Z,18.75
2018-10-09T10:02:56.827Z,16.97
2018-10-09T10:05:25.159Z,19.60
2018-10-09T10:07:53.411Z,18.27
2018-10-09T10:10:21.705Z,18.35
2018-10-09T10:12:50.006Z,18.02
2018-10-09T10:15:18.488Z,18.82
2018-10-09T10:17:46.751Z,18.80
2018-10-09T10:20:15.093Z,16.90
2018-10-09T10:22:43.390Z,17.40
2018-10-09T10:25:11.642Z,18.07
2018-10-09T10:27:39.908Z,17.20
2018-10-09T10:30:08.208Z,17.23
2018-10-09T10:32:36.525Z,17.60
2018-10-09T10:35:04.876Z,18.10
2018-10-09T10:37:33.169Z,17.90
2018-10-09T10:40:01.438Z,17.40
2018-10-09T10:42:29.715Z,18.37
2018-10-09T10:44:57.988Z,18.00
2018-10-09T10:47:26.279Z,17.90
2018-10-09T10:49:54.562Z,18.48
2018-10-09T10:52:22.825Z,18.85
2018-10-09T10:54:51.177Z,18.90
2018-10-09T10:57:19.417Z,17.87
2018-10-09T10:59:47.755Z,17.62
2018-10-09T11:02:16.034Z,18.73
2018-10-09T11:04:44.324Z,20.70
2018-10-09T11:07:12.602Z,19.12
2018-10-09T11:09:40.931Z,18.48
2018-10-09T11:12:09.205Z,18.75
2018-10-09T11:14:37.569Z,19.50
2018-10-09T11:17:05.787Z,19.82
2018-10-09T11:19:34.048Z,19.40
2018-10-09T11:22:02.355Z,20.25
2018-10-09T11:24:30.610Z,20.68
2018-10-09T11:26:58.913Z,20.62
2018-10-09T11:29:27.288Z,20.08
2018-10-09T11:31:55.531Z,19.23
2018-10-09T11:34:23.826Z,19.90
2018-10-09T11:36:52.060Z,20.60
2018-10-09T11:39:20.407Z,20.27
2018-10-09T11:41:48.670Z,20.85
2018-10-09T11:44:16.970Z,20.62
2018-10-09T11:46:45.236Z,20.40
2018-10-09T11:49:13.487Z,21.68
2018-10-09T11:51:41.995Z,20.12
2018-10-09T11:54:10.629Z,20.70
2018-10-09T11:56:39.124Z,21.00
2018-10-09T11:59:07.648Z,20.63
2018-10-09T12:01:36.999Z,20.53
2018-10-09T12:04:05.264Z,21.60
2018-10-09T12:06:33.531Z,20.70
2018-10-09T12:09:01.821Z,21.60
2018-10-09T12:11:30.088Z,21.60
2018-10-09T12:13:58.380Z,20.20
2018-10-09T12:16:26.718Z,21.52
2018-10-09T12:18:54.999Z,20.07
2018-10-09T12:21:23.299Z,20.48
2018-10-09T12:23:51.601Z,21.02
2018-10-09T12:26:19.874Z,21.80
2018-10-09T12:28:48.155Z,19.75
2018-10-09T12:31:16.548Z,20.10
2018-10-09T12:33:44.836Z,20.35
2018-10-09T12:36:13.130Z,19.73
2018-10-09T12:38:41.471Z,17.60
2018-10-09T12:41:09.814Z,18.55
2018-10-09T12:43:38.109Z,16.32
2018-10-09T12:46:06.382Z,15.80
2018-10-09T12:48:35.027Z,13.38
2018-10-09T12:51:03.330Z,12.68
2018-10-09T12:53:31.639Z,12.63
2018-10-09T12:56:00.381Z,11.43
2018-10-09T12:58:28.680Z,14.50
2018-10-09T13:00:56.949Z,17.27
2018-10-09T13:03:25.476Z,15.65
2018-10-09T13:05:53.723Z,16.30
2018-10-09T13:08:21.999Z,15.77
2018-10-09T13:10:50.312Z,16.57
2018-10-09T13:13:19.287Z,16.42
2018-10-09T13:15:47.594Z,16.55
2018-10-09T13:18:15.938Z,17.30
2018-10-09T13:20:44.649Z,17.00
2018-10-09T13:23:12.944Z,17.80
2018-10-09T13:25:41.253Z,17.70
2018-10-09T13:28:09.638Z,16.77
2018-10-09T13:30:37.902Z,15.60
2018-10-09T13:33:06.384Z,17.17
2018-10-09T13:35:35.456Z,16.42
2018-10-09T13:38:03.813Z,17.57
2018-10-09T13:40:32.058Z,18.80
2018-10-09T13:43:00.443Z,19.90
2018-10-09T13:45:28.676Z,17.37
2018-10-09T13:47:56.954Z,17.75
2018-10-09T13:50:25.281Z,19.98
2018-10-09T13:52:53.525Z,16.05
2018-10-09T13:55:21.880Z,16.73
2018-10-09T13:57:50.122Z,14.90
2018-10-09T14:00:18.454Z,14.37
2018-10-09T14:02:46.713Z,15.07
2018-10-09T14:05:14.968Z,14.43
2018-10-09T14:07:43.288Z,16.17
2018-10-09T14:10:11.581Z,16.25
2018-10-09T14:12:39.872Z,16.97
2018-10-09T14:15:08.284Z,17.70
2018-10-09T14:17:36.461Z,16.32
2018-10-09T14:20:04.763Z,17.67
2018-10-09T14:22:33.172Z,17.00
2018-10-09T14:25:01.394Z,16.80
2018-10-09T14:27:29.664Z,17.10
2018-10-09T14:29:57.953Z,17.70
2018-10-09T14:32:26.497Z,17.37
2018-10-09T14:34:54.859Z,18.98
2018-10-09T14:37:23.235Z,17.65
2018-10-09T14:39:51.520Z,17.50
2018-10-09T14:42:20.264Z,17.52
2018-10-09T14:44:48.616Z,18.07
2018-10-09T14:47:17.655Z,19.63
2018-10-09T14:49:45.965Z,17.57
2018-10-09T14:52:14.480Z,17.27
2018-10-09T14:54:42.790Z,17.30
2018-10-09T14:57:11.063Z,18.60
2018-10-09T14:59:39.350Z,21.50
2018-10-09T15:02:08.156Z,21.30
2018-10-09T15:04:36.444Z,25.73
2018-10-09T15:07:04.703Z,22.20
2018-10-09T15:09:33.035Z,22.80
2018-10-09T15:12:01.283Z,19.20
2018-10-09T15:14:29.606Z,19.23
2018-10-09T15:16:57.901Z,19.55
2018-10-09T15:19:26.144Z,19.60
2018-10-09T15:21:54.416Z,19.35
2018-10-09T15:24:22.679Z,18.90
2018-10-09T15:26:50.984Z,17.62
2018-10-09T15:29:19.264Z,19.12
2018-10-09T15:31:47.767Z,19.95
2018-10-09T15:34:16.077Z,18.80
2018-10-09T15:36:44.839Z,19.20
2018-10-09T15:39:13.659Z,21.23
2018-10-09T15:41:42.574Z,32.17
2018-10-09T15:44:10.837Z,30.70
2018-10-09T15:46:39.351Z,28.93
2018-10-09T15:49:07.916Z,25.68
2018-10-09T15:51:36.180Z,20.55
2018-10-09T15:54:04.459Z,20.60
2018-10-09T15:56:32.865Z,20.70
2018-10-09T15:59:01.538Z,20.43
2018-10-09T16:01:29.772Z,21.00
2018-10-09T16:03:58.061Z,20.05
2018-10-09T16:06:26.301Z,21.48
2018-10-09T16:08:54.548Z,21.40
2018-10-09T16:11:22.842Z,26.70
2018-10-09T16:13:51.126Z,19.87
2018-10-09T16:16:19.412Z,20.10
2018-10-09T16:18:47.679Z,20.35
2018-10-09T16:21:15.950Z,20.65
2018-10-09T16:23:44.256Z,22.30
2018-10-09T16:26:12.536Z,23.62
2018-10-09T16:28:40.775Z,24.32
2018-10-09T16:31:09.395Z,20.15
2018-10-09T16:33:37.698Z,20.82
2018-10-09T16:36:05.996Z,19.20
2018-10-09T16:38:34.268Z,18.50
2018-10-09T16:41:02.536Z,19.52
2018-10-09T16:43:30.833Z,22.93
2018-10-09T16:45:59.187Z,23.05
2018-10-09T16:48:27.458Z,19.05
2018-10-09T16:50:55.725Z,20.10
2018-10-09T16:53:23.984Z,17.73
2018-10-09T16:55:52.252Z,24.20
2018-10-09T16:58:20.542Z,29.72
2018-10-09T17:00:48.807Z,23.07
2018-10-09T17:03:37.954Z,19.17
2018-10-09T17:06:07.056Z,19.67
2018-10-09T17:08:35.656Z,25.12
2018-10-09T17:11:03.951Z,22.40
2018-10-09T17:13:32.224Z,21.52
2018-10-09T17:16:00.509Z,21.05
2018-10-09T17:18:28.783Z,19.65
2018-10-09T17:20:56.995Z,19.37
2018-10-09T17:23:25.305Z,20.15
2018-10-09T17:25:53.589Z,19.90
2018-10-09T17:28:21.896Z,19.10
2018-10-09T17:30:50.124Z,18.55
2018-10-09T17:33:18.553Z,18.90
2018-10-09T17:35:46.741Z,18.77
2018-10-09T17:38:15.019Z,18.82
2018-10-09T17:40:43.292Z,21.75
2018-10-09T17:43:11.566Z,21.45
2018-10-09T17:45:39.834Z,29.30
2018-10-09T17:48:08.112Z,23.92
2018-10-09T17:50:36.456Z,23.22
2018-10-09T17:53:04.719Z,21.60
2018-10-09T17:55:32.983Z,20.72
2018-10-09T17:58:01.327Z,22.50
2018-10-09T18:00:29.590Z,21.37
2018-10-09T18:02:57.909Z,23.70
2018-10-09T18:05:26.172Z,26.33
2018-10-09T18:07:54.451Z,26.67
2018-10-09T18:10:22.724Z,29.67
2018-10-09T18:12:50.966Z,29.10
2018-10-09T18:15:19.707Z,27.93
2018-10-09T18:17:48.288Z,27.17
2018-10-09T18:20:16.590Z,27.50
2018-10-09T18:22:44.831Z,25.43
2018-10-09T18:25:13.166Z,25.72
2018-10-09T18:27:41.476Z,25.08
2018-10-09T18:30:10.269Z,25.20
2018-10-09T18:32:38.662Z,25.23
2018-10-09T18:35:06.956Z,25.23
2018-10-09T18:37:35.204Z,25.37
2018-10-09T18:40:03.512Z,25.60
2018-10-09T18:42:31.885Z,26.17
2018-10-09T18:45:00.101Z,32.10
2018-10-09T18:47:33.742Z,29.90
2018-10-09T18:50:02.012Z,28.15
2018-10-09T18:52:30.269Z,27.32
2018-10-09T18:54:58.851Z,26.95
2018-10-09T18:57:27.196Z,26.77
2018-10-09T18:59:55.512Z,25.20
2018-10-09T19:02:23.803Z,25.20
2018-10-09T19:04:52.195Z,39.25
2018-10-09T19:07:20.499Z,69.72
2018-10-09T19:09:49.097Z,76.40
2018-10-09T19:12:17.820Z,130.07
2018-10-09T19:14:46.548Z,142.47
2018-10-09T19:17:14.918Z,115.47
2018-10-09T19:19:43.529Z,72.53
2018-10-09T19:22:11.842Z,49.93
2018-10-09T19:24:40.143Z,156.40
2018-10-09T19:27:08.431Z,56.92
2018-10-09T19:29:36.697Z,39.13
2018-10-09T19:32:04.951Z,31.02
2018-10-09T19:34:33.260Z,28.35
2018-10-09T19:37:01.540Z,28.27
2018-10-09T19:39:29.905Z,27.65
2018-10-09T19:41:58.100Z,27.10
2018-10-09T19:44:26.379Z,27.30
2018-10-09T19:46:54.653Z,28.50
2018-10-09T19:49:22.908Z,27.90
2018-10-09T19:51:51.181Z,27.10
2018-10-09T19:54:19.426Z,27.22
2018-10-09T19:56:47.676Z,29.50
2018-10-09T19:59:15.997Z,34.18
2018-10-09T20:01:44.253Z,33.83
2018-10-09T20:04:12.550Z,30.97
2018-10-09T20:06:40.839Z,30.20
2018-10-09T20:09:10.938Z,30.37
2018-10-09T20:11:39.325Z,29.92
2018-10-09T20:14:08.581Z,29.92
2018-10-09T20:16:36.895Z,30.40
2018-10-09T20:19:05.207Z,30.62
2018-10-09T20:21:33.804Z,31.60
2018-10-09T20:24:02.096Z,29.98
2018-10-09T20:26:30.356Z,31.33
2018-10-09T20:28:58.619Z,30.50
2018-10-09T20:31:26.924Z,30.45
2018-10-09T20:33:55.221Z,32.17
2018-10-09T20:36:23.736Z,32.05
2018-10-09T20:38:52.019Z,30.10
2018-10-09T20:41:20.336Z,29.87
2018-10-09T20:43:48.708Z,29.35
2018-10-09T20:46:17.114Z,29.72
2018-10-09T20:48:45.600Z,29.98
2018-10-09T20:51:14.053Z,27.67
2018-10-09T20:53:42.340Z,28.80
2018-10-09T20:56:10.624Z,29.40
2018-10-09T20:58:39.194Z,29.48
2018-10-09T21:01:07.608Z,29.50
2018-10-09T21:03:35.934Z,29.13
2018-10-09T21:06:04.258Z,30.12
2018-10-09T21:08:32.506Z,31.35
2018-10-09T21:11:00.810Z,30.23
2018-10-09T21:13:29.078Z,31.17
2018-10-09T21:15:57.374Z,30.17
2018-10-09T21:18:25.869Z,30.60
2018-10-09T21:20:54.138Z,32.83
2018-10-09T21:23:22.407Z,30.80
2018-10-09T21:25:50.682Z,28.98
2018-10-09T21:28:18.974Z,30.17
2018-10-09T21:30:47.239Z,29.77
2018-10-09T21:33:15.520Z,29.90
2018-10-09T21:35:43.814Z,28.17
2018-10-09T21:38:12.106Z,27.30
2018-10-09T21:40:40.394Z,27.93
2018-10-09T21:43:08.694Z,28.30
2018-10-09T21:45:36.971Z,29.33
2018-10-09T21:48:05.630Z,28.33
2018-10-09T21:50:33.929Z,27.98
2018-10-09T21:53:02.232Z,29.32
2018-10-09T21:55:30.622Z,29.00
2018-10-09T21:57:59.135Z,28.17
2018-10-09T22:00:27.622Z,25.37
2018-10-09T22:02:56.307Z,25.68
2018-10-09T22:05:24.622Z,26.07
2018-10-09T22:07:53.354Z,25.03
2018-10-09T22:10:21.704Z,26.73
2018-10-09T22:12:49.982Z,26.60
2018-10-09T22:15:18.243Z,26.68
2018-10-09T22:17:46.519Z,25.02
2018-10-09T22:20:14.780Z,25.80
2018-10-09T22:22:43.056Z,26.43
2018-10-09T22:25:11.322Z,25.60
2018-10-09T22:27:39.640Z,26.15
2018-10-09T22:30:07.911Z,24.80
2018-10-09T22:32:36.216Z,24.98
2018-10-09T22:35:04.522Z,24.30
2018-10-09T22:37:32.782Z,24.70
2018-10-09T22:40:01.100Z,24.30
2018-10-09T22:42:29.375Z,23.92
2018-10-09T22:44:57.634Z,24.37
2018-10-09T22:47:25.915Z,25.10
2018-10-09T22:49:54.221Z,23.18
2018-10-09T22:52:22.570Z,22.77
2018-10-09T22:54:50.922Z,22.77
2018-10-09T22:57:19.235Z,24.72
2018-10-09T22:59:47.526Z,22.95
2018-10-09T23:02:15.835Z,22.30
2018-10-09T23:04:44.122Z,23.85
2018-10-09T23:07:12.463Z,23.53
2018-10-09T23:09:41.147Z,24.00
2018-10-09T23:12:09.406Z,22.95
2018-10-09T23:14:37.678Z,24.75
2018-10-09T23:17:05.963Z,21.73
2018-10-09T23:19:34.215Z,23.80
2018-10-09T23:22:02.548Z,21.77
2018-10-09T23:24:30.775Z,23.22
2018-10-09T23:26:59.040Z,21.95
2018-10-09T23:29:27.363Z,22.60
2018-10-09T23:31:55.645Z,22.62
2018-10-09T23:34:23.941Z,23.75
2018-10-09T23:36:52.277Z,22.73
2018-10-09T23:39:20.535Z,23.62
2018-10-09T23:41:48.846Z,22.60
2018-10-09T23:44:17.115Z,21.90
2018-10-09T23:46:45.450Z,24.07
2018-10-09T23:49:13.749Z,23.67
2018-10-09T23:51:42.050Z,25.05
2018-10-09T23:54:10.334Z,23.20
2018-10-09T23:56:38.651Z,24.10
2018-10-09T23:59:07.519Z,23.67
